Terminal Aerodrome Forecast
Issued by NWS

Home | Current Version | Previous Version | Text Only | Print | Product List | Glossary On
Versions: 1 2 3 4 5 6 7 8 9 10
788
FTPA31 PHFO 231727
TAFHKO
TAF
PHKO 231727Z 2318/2418 11007KT P6SM FEW035 SCT060 BKN250
     FM232100 21010KT P6SM FEW035 SCT060 BKN250
     FM240600 12005KT P6SM FEW035 SCT060=

USA.gov is the U.S. government's official web portal to all federal, state and local government web resources and services.